createdAt,value
2018-04-07T00:00:31.411Z,7.70
2018-04-07T00:01:34.750Z,7.70
2018-04-07T00:02:37.268Z,7.70
2018-04-07T00:03:39.777Z,7.80
2018-04-07T00:04:42.289Z,7.70
2018-04-07T00:05:45.564Z,7.70
2018-04-07T00:06:48.884Z,7.60
2018-04-07T00:07:51.403Z,7.60
2018-04-07T00:08:53.920Z,7.70
2018-04-07T00:09:56.442Z,7.60
2018-04-07T00:10:59.761Z,7.60
2018-04-07T00:12:02.294Z,7.60
2018-04-07T00:13:05.625Z,7.50
2018-04-07T00:14:08.154Z,7.50
2018-04-07T00:15:11.434Z,7.40
2018-04-07T00:16:14.714Z,7.40
2018-04-07T00:17:18.001Z,7.30
2018-04-07T00:18:21.325Z,7.30
2018-04-07T00:19:23.842Z,7.30
2018-04-07T00:20:26.368Z,7.20
2018-04-07T00:21:28.884Z,7.20
2018-04-07T00:22:32.165Z,7.20
2018-04-07T00:23:35.477Z,7.10
2018-04-07T00:24:38.021Z,7.20
2018-04-07T00:25:41.321Z,7.10
2018-04-07T00:26:43.886Z,7.10
2018-04-07T00:27:46.400Z,7.10
2018-04-07T00:28:48.916Z,7.00
2018-04-07T00:29:51.434Z,6.90
2018-04-07T00:30:53.976Z,6.90
2018-04-07T00:31:56.498Z,6.90
2018-04-07T00:32:59.789Z,6.80
2018-04-07T00:34:03.082Z,6.80
2018-04-07T00:35:05.596Z,6.80
2018-04-07T00:36:08.152Z,6.70
2018-04-07T00:37:10.664Z,6.60
2018-04-07T00:38:13.941Z,6.70
2018-04-07T00:39:17.217Z,6.70
2018-04-07T00:40:19.730Z,6.70
2018-04-07T00:41:22.277Z,6.70
2018-04-07T00:42:24.825Z,6.80
2018-04-07T00:43:28.120Z,6.80
2018-04-07T00:44:31.400Z,6.70
2018-04-07T00:45:34.713Z,6.60
2018-04-07T00:47:46.230Z,6.70
2018-04-07T00:48:48.779Z,6.50
2018-04-07T00:49:51.297Z,6.50
2018-04-07T00:50:54.617Z,6.30
2018-04-07T00:51:57.133Z,6.30
2018-04-07T00:52:59.653Z,6.30
2018-04-07T00:54:02.174Z,6.30
2018-04-07T00:55:05.458Z,6.40
2018-04-07T00:56:08.785Z,6.30
2018-04-07T00:57:11.306Z,6.30
2018-04-07T00:58:14.587Z,6.30
2018-04-07T00:59:17.877Z,6.30
2018-04-07T01:00:21.156Z,6.30
2018-04-07T01:01:24.465Z,6.20
2018-04-07T01:02:26.984Z,6.20
2018-04-07T01:03:29.497Z,6.20
2018-04-07T01:04:32.035Z,6.20
2018-04-07T01:05:35.320Z,6.20
2018-04-07T01:06:38.658Z,6.20
2018-04-07T01:07:41.217Z,6.20
2018-04-07T01:08:43.741Z,6.20
2018-04-07T01:09:47.029Z,6.10
2018-04-07T01:10:50.339Z,6.10
2018-04-07T01:11:52.902Z,6.00
2018-04-07T01:12:55.436Z,6.10
2018-04-07T01:13:58.737Z,6.00
2018-04-07T01:15:02.024Z,6.00
2018-04-07T01:16:05.301Z,5.90
2018-04-07T01:17:08.632Z,5.90
2018-04-07T01:18:11.146Z,5.90
2018-04-07T01:19:14.461Z,5.90
2018-04-07T01:20:16.986Z,5.90
2018-04-07T01:21:19.512Z,6.00
2018-04-07T01:22:22.078Z,5.90
2018-04-07T01:23:24.597Z,5.70
2018-04-07T01:24:27.884Z,5.80
2018-04-07T01:25:31.172Z,5.90
2018-04-07T01:26:34.454Z,5.80
2018-04-07T01:27:37.773Z,5.80
2018-04-07T01:28:40.323Z,5.80
2018-04-07T01:29:42.837Z,5.80
2018-04-07T01:30:45.356Z,5.80
2018-04-07T01:31:47.866Z,5.80
2018-04-07T01:32:50.426Z,5.80
2018-04-07T01:33:52.989Z,5.80
2018-04-07T01:34:55.509Z,5.80
2018-04-07T01:35:58.026Z,5.90
2018-04-07T01:37:00.546Z,5.90
2018-04-07T01:38:03.097Z,5.80
2018-04-07T01:39:06.418Z,5.70
2018-04-07T01:40:08.925Z,5.70
2018-04-07T01:41:11.446Z,5.70
2018-04-07T01:42:13.968Z,5.80
2018-04-07T01:43:17.253Z,5.70
2018-04-07T01:44:20.573Z,5.70
2018-04-07T01:45:23.090Z,5.60
2018-04-07T01:46:25.609Z,5.70
2018-04-07T01:47:28.129Z,5.70
2018-04-07T01:48:31.414Z,5.70
2018-04-07T01:49:34.733Z,5.60
2018-04-07T01:50:37.257Z,5.60
2018-04-07T01:51:39.780Z,5.50
2018-04-07T01:52:42.301Z,5.50
2018-04-07T01:53:45.609Z,5.50
2018-04-07T01:54:48.126Z,5.50
2018-04-07T01:55:50.685Z,5.50
2018-04-07T01:56:53.210Z,5.50
2018-04-07T01:57:55.723Z,5.50
2018-04-07T01:58:58.253Z,5.50
2018-04-07T02:00:00.808Z,5.60
2018-04-07T02:01:03.329Z,5.60
2018-04-07T02:02:05.855Z,5.50
2018-04-07T02:03:08.381Z,5.50
2018-04-07T02:04:11.660Z,5.50
2018-04-07T02:05:14.973Z,5.50
2018-04-07T02:06:17.492Z,5.40
2018-04-07T02:07:20.009Z,5.40
2018-04-07T02:08:22.520Z,5.40
2018-04-07T02:09:25.029Z,5.40
2018-04-07T02:10:27.599Z,5.40
2018-04-07T02:11:30.133Z,5.40
2018-04-07T02:12:33.417Z,5.40
2018-04-07T02:13:35.937Z,5.40
2018-04-07T02:14:38.459Z,5.40
2018-04-07T02:15:41.773Z,5.20
2018-04-07T02:16:44.297Z,5.20
2018-04-07T02:17:46.855Z,5.20
2018-04-07T02:18:49.373Z,5.20
2018-04-07T02:19:51.881Z,5.20
2018-04-07T02:20:54.392Z,5.20
2018-04-07T02:21:56.914Z,5.30
2018-04-07T02:22:59.452Z,5.20
2018-04-07T02:24:01.974Z,5.30
2018-04-07T02:25:05.255Z,5.20
2018-04-07T02:26:08.576Z,5.20
2018-04-07T02:27:11.123Z,5.10
2018-04-07T02:28:13.633Z,5.20
2018-04-07T02:29:16.185Z,5.20
2018-04-07T02:30:18.697Z,5.10
2018-04-07T02:31:21.980Z,5.10
2018-04-07T02:32:25.276Z,5.10
2018-04-07T02:33:27.833Z,5.10
2018-04-07T02:34:31.122Z,5.10
2018-04-07T02:35:34.413Z,5.10
2018-04-07T02:36:37.684Z,5.10
2018-04-07T02:37:40.997Z,5.10
2018-04-07T02:38:43.559Z,5.10
2018-04-07T02:39:46.097Z,5.10
2018-04-07T02:40:49.440Z,5.00
2018-04-07T02:41:51.956Z,5.00
2018-04-07T02:42:55.237Z,5.00
2018-04-07T02:43:58.522Z,4.90
2018-04-07T02:45:01.822Z,4.90
2018-04-07T02:46:04.375Z,4.90
2018-04-07T02:47:06.927Z,4.90
2018-04-07T02:48:09.458Z,5.00
2018-04-07T02:49:11.975Z,4.90
2018-04-07T02:50:15.303Z,5.00
2018-04-07T02:51:17.814Z,4.90
2018-04-07T02:52:21.106Z,4.90
2018-04-07T02:53:24.397Z,4.90
2018-04-07T02:54:27.689Z,4.90
2018-04-07T02:55:30.242Z,4.90
2018-04-07T02:56:33.569Z,4.90
2018-04-07T02:57:36.077Z,4.90
2018-04-07T02:58:38.597Z,4.90
2018-04-07T02:59:41.114Z,4.90
2018-04-07T03:00:44.407Z,4.90
2018-04-07T03:01:47.741Z,4.90
2018-04-07T03:02:50.260Z,4.90
2018-04-07T03:03:53.545Z,4.90
2018-04-07T03:04:56.069Z,4.80
2018-04-07T03:05:58.590Z,4.90
2018-04-07T03:07:01.145Z,4.80
2018-04-07T03:08:04.439Z,4.90
2018-04-07T03:09:07.086Z,4.80
2018-04-07T03:10:10.357Z,4.90
2018-04-07T03:11:13.645Z,4.90
2018-04-07T03:12:16.202Z,4.90
2018-04-07T03:13:18.722Z,4.90
2018-04-07T03:14:21.238Z,4.90
2018-04-07T03:15:23.764Z,4.90
2018-04-07T03:16:26.273Z,4.90
2018-04-07T03:17:28.821Z,4.90
2018-04-07T03:18:31.337Z,4.90
2018-04-07T03:19:33.891Z,5.00
2018-04-07T03:20:37.171Z,5.00
2018-04-07T03:21:40.444Z,5.00
2018-04-07T03:22:43.724Z,5.00
2018-04-07T03:23:46.234Z,5.00
2018-04-07T03:24:48.784Z,5.00
2018-04-07T03:25:51.349Z,5.10
2018-04-07T03:26:53.857Z,5.00
2018-04-07T03:27:56.373Z,5.00
2018-04-07T03:28:59.651Z,5.00
2018-04-07T03:30:02.946Z,5.00
2018-04-07T03:31:05.518Z,5.00
2018-04-07T03:32:08.066Z,4.90
2018-04-07T03:33:11.350Z,5.00
2018-04-07T03:34:14.638Z,4.90
2018-04-07T03:35:17.917Z,4.90
2018-04-07T03:36:21.192Z,4.90
2018-04-07T03:37:24.525Z,4.90
2018-04-07T03:38:27.048Z,4.90
2018-04-07T03:39:30.324Z,4.80
2018-04-07T03:40:32.845Z,4.80
2018-04-07T03:41:35.360Z,4.80
2018-04-07T03:42:38.666Z,4.80
2018-04-07T03:43:41.177Z,4.80
2018-04-07T03:44:43.716Z,4.80
2018-04-07T03:45:46.235Z,4.70
2018-04-07T03:46:49.521Z,4.70
2018-04-07T03:47:52.837Z,4.70
2018-04-07T03:48:55.354Z,4.70
2018-04-07T03:49:57.886Z,4.70
2018-04-07T03:51:00.413Z,4.70
2018-04-07T03:52:03.697Z,4.70
2018-04-07T03:53:07.024Z,4.60
2018-04-07T03:54:09.529Z,4.60
2018-04-07T03:55:12.049Z,4.70
2018-04-07T03:56:14.569Z,4.60
2018-04-07T03:57:17.845Z,4.70
2018-04-07T03:58:20.450Z,4.60
2018-04-07T03:59:22.969Z,4.50
2018-04-07T04:00:25.488Z,4.60
2018-04-07T04:01:28.014Z,4.50
2018-04-07T04:02:31.341Z,4.50
2018-04-07T04:03:33.864Z,4.40
2018-04-07T04:04:36.384Z,4.50
2018-04-07T04:05:38.908Z,4.50
2018-04-07T04:06:42.190Z,4.40
2018-04-07T04:07:45.501Z,4.40
2018-04-07T04:08:48.015Z,4.40
2018-04-07T04:09:50.524Z,4.50
2018-04-07T04:10:53.045Z,4.40
2018-04-07T04:11:55.557Z,4.30
2018-04-07T04:12:58.112Z,4.30
2018-04-07T04:14:01.399Z,4.30
2018-04-07T04:15:03.961Z,4.30
2018-04-07T04:16:06.448Z,4.20
2018-04-07T04:17:08.959Z,4.10
2018-04-07T04:18:11.507Z,4.10
2018-04-07T04:19:14.025Z,4.20
2018-04-07T04:20:17.314Z,4.20
2018-04-07T04:21:19.828Z,4.20
2018-04-07T04:22:22.355Z,4.10
2018-04-07T04:23:24.928Z,4.10
2018-04-07T04:24:27.440Z,4.10
2018-04-07T04:25:30.070Z,4.10
2018-04-07T04:26:32.580Z,4.10
2018-04-07T04:27:35.098Z,4.10
2018-04-07T04:28:37.639Z,4.10
2018-04-07T04:29:40.153Z,4.10
2018-04-07T04:30:42.707Z,4.10
2018-04-07T04:31:45.213Z,4.20
2018-04-07T04:32:47.719Z,4.20
2018-04-07T04:33:50.278Z,4.20
2018-04-07T04:34:52.804Z,4.10
2018-04-07T04:35:55.364Z,4.00
2018-04-07T04:36:57.898Z,4.10
2018-04-07T04:38:00.404Z,4.10
2018-04-07T04:39:02.921Z,4.10
2018-04-07T04:40:05.446Z,4.10
2018-04-07T04:41:08.770Z,4.10
2018-04-07T04:42:11.287Z,4.10
2018-04-07T04:43:13.809Z,4.20
2018-04-07T04:44:16.325Z,4.20
2018-04-07T04:45:18.841Z,4.20
2018-04-07T04:46:21.389Z,4.20
2018-04-07T04:47:23.912Z,4.30
2018-04-07T04:48:26.467Z,4.20
2018-04-07T04:49:28.985Z,4.20
2018-04-07T04:50:31.494Z,4.10
2018-04-07T04:51:34.017Z,4.10
2018-04-07T04:52:36.528Z,4.10
2018-04-07T04:53:39.097Z,4.00
2018-04-07T04:54:41.618Z,4.00
2018-04-07T04:55:44.140Z,4.00
2018-04-07T04:56:46.649Z,4.00
2018-04-07T04:57:49.169Z,4.00
2018-04-07T04:58:51.748Z,4.00
2018-04-07T04:59:54.292Z,4.00
2018-04-07T05:00:56.810Z,4.00
2018-04-07T05:01:59.328Z,4.00
2018-04-07T05:03:01.843Z,4.00
2018-04-07T05:04:04.433Z,4.00
2018-04-07T05:05:06.957Z,3.90
2018-04-07T05:06:10.241Z,3.90
2018-04-07T05:07:13.531Z,3.80
2018-04-07T05:08:16.817Z,3.80
2018-04-07T05:09:20.125Z,3.80
2018-04-07T05:10:22.641Z,3.80
2018-04-07T05:11:25.201Z,3.80
2018-04-07T05:12:27.750Z,3.80
2018-04-07T05:13:30.249Z,3.90
2018-04-07T05:14:33.526Z,3.90
2018-04-07T05:15:36.045Z,3.90
2018-04-07T05:16:38.592Z,3.90
2018-04-07T05:17:41.112Z,4.00
2018-04-07T05:18:43.630Z,4.00
2018-04-07T05:19:46.151Z,4.00
2018-04-07T05:20:48.683Z,4.00
2018-04-07T05:21:51.235Z,4.10
2018-04-07T05:22:53.757Z,4.10
2018-04-07T05:23:57.082Z,4.20
2018-04-07T05:24:59.614Z,4.20
2018-04-07T05:26:02.905Z,4.10
2018-04-07T05:27:06.185Z,4.20
2018-04-07T05:28:09.466Z,4.30
2018-04-07T05:29:12.780Z,4.30
2018-04-07T05:30:15.292Z,4.30
2018-04-07T05:31:17.812Z,4.30
2018-04-07T05:32:20.327Z,4.30
2018-04-07T05:33:22.844Z,4.30
2018-04-07T05:34:25.412Z,4.30
2018-04-07T05:35:27.936Z,4.30
2018-04-07T05:36:30.449Z,4.20
2018-04-07T05:37:32.956Z,4.20
2018-04-07T05:38:35.478Z,4.20
2018-04-07T05:39:38.028Z,4.20
2018-04-07T05:40:40.546Z,4.20
2018-04-07T05:41:43.063Z,4.20
2018-04-07T05:42:45.589Z,4.20
2018-04-07T05:43:48.147Z,4.20
2018-04-07T05:44:50.670Z,4.20
2018-04-07T05:45:53.278Z,4.20
2018-04-07T05:46:55.836Z,4.10
2018-04-07T05:47:58.374Z,4.30
2018-04-07T05:49:00.917Z,4.30
2018-04-07T05:50:04.230Z,4.30
2018-04-07T05:51:06.736Z,4.30
2018-04-07T05:52:09.258Z,4.40
2018-04-07T05:53:11.765Z,4.40
2018-04-07T05:54:14.279Z,4.40
2018-04-07T05:55:16.833Z,4.50
2018-04-07T05:56:19.368Z,4.50
2018-04-07T05:57:21.898Z,4.50
2018-04-07T05:58:24.409Z,4.60
2018-04-07T05:59:27.690Z,4.60
2018-04-07T06:00:30.242Z,4.60
2018-04-07T06:01:32.762Z,4.60
2018-04-07T06:02:35.282Z,4.70
2018-04-07T06:03:37.797Z,4.60
2018-04-07T06:04:40.342Z,4.60
2018-04-07T06:05:43.666Z,4.80
2018-04-07T06:06:46.180Z,4.80
2018-04-07T06:07:49.471Z,4.90
2018-04-07T06:08:52.757Z,5.00
2018-04-07T06:09:56.047Z,5.00
2018-04-07T06:10:58.598Z,5.00
2018-04-07T06:12:01.884Z,5.10
2018-04-07T06:13:05.205Z,5.20
2018-04-07T06:14:07.719Z,5.20
2018-04-07T06:15:10.237Z,5.20
2018-04-07T06:16:12.748Z,5.20
2018-04-07T06:17:15.257Z,5.30
2018-04-07T06:18:17.822Z,5.40
2018-04-07T06:19:20.341Z,5.40
2018-04-07T06:20:22.854Z,5.40
2018-04-07T06:21:25.378Z,5.40
2018-04-07T06:22:27.938Z,5.50
2018-04-07T06:23:30.457Z,5.50
2018-04-07T06:24:33.015Z,5.50
2018-04-07T06:25:35.536Z,5.60
2018-04-07T06:26:38.062Z,5.60
2018-04-07T06:27:40.604Z,5.70
2018-04-07T06:28:43.189Z,5.70
2018-04-07T06:29:45.707Z,5.80
2018-04-07T06:30:48.220Z,5.90
2018-04-07T06:31:50.744Z,5.90
2018-04-07T06:32:53.277Z,6.00
2018-04-07T06:33:55.817Z,6.00
2018-04-07T06:34:58.346Z,6.00
2018-04-07T06:36:01.634Z,6.00
2018-04-07T06:37:04.913Z,6.00
2018-04-07T06:38:08.188Z,6.10
2018-04-07T06:39:10.762Z,6.10
2018-04-07T06:40:14.036Z,6.10
2018-04-07T06:41:16.562Z,6.10
2018-04-07T06:42:19.080Z,6.10
2018-04-07T06:43:22.360Z,6.20
2018-04-07T06:44:24.900Z,6.10
2018-04-07T06:45:27.417Z,6.20
2018-04-07T06:46:29.944Z,6.30
2018-04-07T06:47:32.459Z,6.30
2018-04-07T06:48:34.982Z,6.30
2018-04-07T06:49:37.548Z,6.40
2018-04-07T06:50:40.102Z,6.40
2018-04-07T06:51:42.625Z,6.40
2018-04-07T06:52:45.159Z,6.50
2018-04-07T06:53:48.438Z,6.50
2018-04-07T06:54:51.755Z,6.60
2018-04-07T06:55:54.274Z,6.60
2018-04-07T06:56:56.823Z,6.70
2018-04-07T06:57:59.347Z,6.70
2018-04-07T06:59:01.904Z,6.80
2018-04-07T07:00:05.190Z,6.80
2018-04-07T07:01:07.757Z,6.80
2018-04-07T07:02:11.044Z,6.80
2018-04-07T07:03:13.562Z,6.80
2018-04-07T07:04:16.117Z,6.90
2018-04-07T07:05:18.682Z,6.90
2018-04-07T07:06:21.970Z,7.00
2018-04-07T07:07:24.494Z,7.10
2018-04-07T07:08:27.008Z,7.10
2018-04-07T07:09:29.557Z,7.10
2018-04-07T07:10:32.078Z,7.10
2018-04-07T07:11:35.361Z,7.20
2018-04-07T07:12:38.676Z,7.20
2018-04-07T07:13:41.231Z,7.20
2018-04-07T07:14:43.750Z,7.30
2018-04-07T07:15:46.343Z,7.40
2018-04-07T07:16:49.639Z,7.60
2018-04-07T07:17:52.168Z,7.60
2018-04-07T07:18:54.692Z,7.80
2018-04-07T07:19:57.226Z,7.90
2018-04-07T07:21:00.553Z,8.20
2018-04-07T07:22:03.126Z,8.20
2018-04-07T07:23:05.648Z,8.40
2018-04-07T07:24:08.931Z,8.80
2018-04-07T07:25:12.226Z,9.00
2018-04-07T07:26:14.755Z,9.00
2018-04-07T07:27:17.309Z,9.10
2018-04-07T07:28:19.846Z,9.20
2018-04-07T07:29:22.363Z,9.30
2018-04-07T07:30:24.924Z,9.40
2018-04-07T07:31:27.539Z,9.50
2018-04-07T07:32:30.058Z,9.60
2018-04-07T07:33:32.564Z,9.70
2018-04-07T07:34:35.076Z,9.70
2018-04-07T07:35:37.663Z,9.80
2018-04-07T07:36:40.952Z,9.90
2018-04-07T07:37:44.250Z,10.00
2018-04-07T07:38:47.542Z,10.00
2018-04-07T07:39:50.066Z,10.00
2018-04-07T07:40:52.631Z,10.10
2018-04-07T07:41:55.204Z,10.10
2018-04-07T07:42:57.697Z,10.10
2018-04-07T07:44:00.990Z,10.20
2018-04-07T07:45:03.512Z,10.20
2018-04-07T07:46:06.280Z,10.30
2018-04-07T07:48:18.650Z,10.40
2018-04-07T07:49:21.162Z,10.40
2018-04-07T07:50:23.690Z,10.50
2018-04-07T07:51:26.254Z,10.60
2018-04-07T07:52:28.793Z,10.70
2018-04-07T07:53:31.328Z,10.60
2018-04-07T07:54:33.857Z,10.70
2018-04-07T07:55:36.397Z,10.70
2018-04-07T07:56:38.952Z,10.80
2018-04-07T07:57:42.246Z,10.90
2018-04-07T07:58:44.769Z,10.90
2018-04-07T07:59:47.272Z,10.90
2018-04-07T08:00:49.829Z,11.00
2018-04-07T08:01:53.309Z,11.10
2018-04-07T08:02:56.604Z,11.20
2018-04-07T08:03:59.889Z,11.20
2018-04-07T08:05:02.430Z,11.20
2018-04-07T08:06:04.997Z,11.20
2018-04-07T08:07:07.512Z,11.30
2018-04-07T08:08:10.043Z,11.40
2018-04-07T08:09:13.410Z,11.50
2018-04-07T08:10:15.972Z,11.50
2018-04-07T08:11:18.536Z,11.50
2018-04-07T08:12:21.066Z,11.50
2018-04-07T08:13:23.589Z,11.60
2018-04-07T08:14:26.877Z,11.60
2018-04-07T08:15:30.161Z,11.60
2018-04-07T08:16:33.500Z,11.60
2018-04-07T08:17:36.021Z,11.50
2018-04-07T08:18:39.311Z,11.50
2018-04-07T08:19:41.838Z,11.50
2018-04-07T08:20:44.389Z,11.50
2018-04-07T08:21:46.927Z,11.60
2018-04-07T08:22:49.453Z,11.60
2018-04-07T08:23:51.978Z,11.70
2018-04-07T08:24:54.516Z,11.70
2018-04-07T08:25:57.034Z,11.70
2018-04-07T08:26:59.608Z,11.70
2018-04-07T08:28:02.130Z,11.80
2018-04-07T08:29:04.675Z,11.80
2018-04-07T08:30:07.215Z,11.80
2018-04-07T08:31:09.799Z,11.90
2018-04-07T08:32:12.401Z,12.00
2018-04-07T08:33:15.647Z,12.10
2018-04-07T08:34:18.935Z,12.00
2018-04-07T08:35:21.465Z,12.00
2018-04-07T08:36:23.987Z,12.10
2018-04-07T08:37:26.561Z,12.20
2018-04-07T08:38:29.090Z,12.20
2018-04-07T08:39:32.467Z,12.30
2018-04-07T08:40:34.946Z,12.30
2018-04-07T08:41:38.229Z,12.60
2018-04-07T08:42:40.794Z,12.60
2018-04-07T08:43:43.385Z,12.70
2018-04-07T08:44:45.911Z,12.90
2018-04-07T08:45:48.421Z,13.10
2018-04-07T08:46:50.940Z,13.20
2018-04-07T08:47:54.238Z,13.40
2018-04-07T08:48:57.600Z,13.40
2018-04-07T08:50:00.097Z,13.40
2018-04-07T08:51:03.388Z,13.60
2018-04-07T08:52:05.909Z,13.60
2018-04-07T08:53:08.454Z,13.70
2018-04-07T08:54:11.025Z,13.80
2018-04-07T08:55:13.544Z,13.90
2018-04-07T08:56:16.825Z,14.00
2018-04-07T08:57:20.112Z,14.10
2018-04-07T08:58:23.442Z,14.20
2018-04-07T08:59:25.958Z,14.20
2018-04-07T09:00:29.256Z,14.30
2018-04-07T09:01:31.778Z,14.20
2018-04-07T09:02:34.338Z,14.30
2018-04-07T09:03:36.862Z,14.40
2018-04-07T09:04:39.417Z,14.60
2018-04-07T09:05:41.968Z,14.70
2018-04-07T09:06:45.261Z,15.10
2018-04-07T09:07:48.547Z,15.30
2018-04-07T09:08:51.081Z,15.30
2018-04-07T09:11:02.498Z,15.30
2018-04-07T09:12:05.021Z,15.40
2018-04-07T09:13:07.553Z,15.70
2018-04-07T09:14:10.069Z,15.80
2018-04-07T09:15:12.600Z,16.20
2018-04-07T09:16:15.165Z,16.60
2018-04-07T09:17:17.679Z,16.90
2018-04-07T09:18:20.961Z,17.30
2018-04-07T09:19:24.259Z,17.30
2018-04-07T09:20:26.780Z,17.30
2018-04-07T09:21:29.337Z,17.20
2018-04-07T09:22:31.867Z,17.20
2018-04-07T09:23:34.389Z,17.20
2018-04-07T09:24:36.917Z,17.40
2018-04-07T09:25:39.438Z,17.60
2018-04-07T09:26:42.760Z,17.90
2018-04-07T09:27:45.281Z,17.90
2018-04-07T09:28:47.810Z,18.20
2018-04-07T09:29:50.365Z,18.50
2018-04-07T09:32:28.619Z,18.90
2018-04-07T09:33:31.137Z,19.20
2018-04-07T09:34:33.697Z,19.60
2018-04-07T09:35:36.233Z,19.70
2018-04-07T09:36:39.525Z,20.20
2018-04-07T09:37:42.811Z,20.50
2018-04-07T09:38:46.134Z,20.80
2018-04-07T09:39:48.688Z,20.80
2018-04-07T09:40:51.204Z,21.20
2018-04-07T09:41:53.717Z,20.60
2018-04-07T09:42:56.256Z,20.20
2018-04-07T09:43:59.543Z,20.20
2018-04-07T09:45:02.874Z,20.30
2018-04-07T09:46:05.393Z,20.30
2018-04-07T09:47:08.726Z,20.50
2018-04-07T09:48:11.244Z,20.50
2018-04-07T09:49:14.531Z,20.20
2018-04-07T09:50:17.097Z,20.20
2018-04-07T09:51:19.614Z,19.70
2018-04-07T09:52:22.130Z,19.40
2018-04-07T09:53:24.688Z,19.50
2018-04-07T09:54:28.009Z,20.50
2018-04-07T09:55:30.531Z,20.40
2018-04-07T09:56:33.813Z,20.60
2018-04-07T09:57:37.104Z,20.50
2018-04-07T09:58:40.385Z,20.50
2018-04-07T09:59:43.738Z,20.50
2018-04-07T10:00:47.189Z,20.40
2018-04-07T10:01:49.712Z,20.80
2018-04-07T10:02:58.045Z,21.00
2018-04-07T10:04:00.564Z,21.20
2018-04-07T10:05:03.120Z,21.20
2018-04-07T10:06:05.645Z,21.30
2018-04-07T10:07:08.174Z,21.10
2018-04-07T10:08:10.707Z,21.20
2018-04-07T10:09:13.237Z,21.10
2018-04-07T10:10:15.804Z,20.90
2018-04-07T10:11:18.327Z,21.00
2018-04-07T10:12:20.846Z,21.00
2018-04-07T10:13:23.371Z,21.00
2018-04-07T10:14:25.893Z,21.10
2018-04-07T10:15:28.478Z,20.70
2018-04-07T10:16:31.015Z,20.50
2018-04-07T10:17:33.542Z,20.40
2018-04-07T10:18:36.056Z,20.50
2018-04-07T10:19:38.573Z,20.70
2018-04-07T10:20:41.126Z,20.70
2018-04-07T10:21:43.648Z,20.80
2018-04-07T10:22:46.174Z,20.80
2018-04-07T10:23:49.460Z,20.60
2018-04-07T10:24:52.794Z,20.40
2018-04-07T10:25:55.317Z,20.40
2018-04-07T10:26:58.602Z,19.90
2018-04-07T10:28:01.885Z,19.80
2018-04-07T10:29:05.170Z,19.70
2018-04-07T10:30:08.501Z,19.60
2018-04-07T10:31:11.021Z,19.60
2018-04-07T10:32:14.313Z,19.40
2018-04-07T10:33:17.639Z,19.10
2018-04-07T10:34:20.162Z,19.10
2018-04-07T10:35:23.445Z,18.80
2018-04-07T10:36:26.730Z,18.80
2018-04-07T10:37:30.014Z,18.80
2018-04-07T10:38:33.329Z,18.80
2018-04-07T10:39:35.887Z,18.80
2018-04-07T10:40:38.410Z,18.70
2018-04-07T10:41:40.927Z,18.70
2018-04-07T10:42:43.470Z,18.60
2018-04-07T10:43:45.986Z,18.50
2018-04-07T10:44:49.264Z,18.40
2018-04-07T10:45:51.821Z,18.40
2018-04-07T10:46:54.366Z,18.40
2018-04-07T10:47:56.909Z,18.30
2018-04-07T10:49:00.189Z,18.40
2018-04-07T10:50:03.471Z,18.40
2018-04-07T10:51:06.785Z,18.40
2018-04-07T10:52:09.305Z,18.40
2018-04-07T10:53:11.834Z,18.40
2018-04-07T10:54:14.380Z,18.50
2018-04-07T10:55:16.912Z,18.70
2018-04-07T10:56:20.204Z,18.90
2018-04-07T10:57:23.532Z,18.90
2018-04-07T10:58:26.050Z,18.90
2018-04-07T10:59:29.334Z,19.10
2018-04-07T11:00:32.646Z,19.10
2018-04-07T11:01:35.165Z,19.10
2018-04-07T11:02:37.689Z,19.20
2018-04-07T11:03:40.206Z,19.20
2018-04-07T11:04:42.765Z,19.20
2018-04-07T11:05:45.326Z,19.30
2018-04-07T11:06:47.850Z,19.40
2018-04-07T11:07:50.364Z,19.40
2018-04-07T11:08:52.890Z,19.40
2018-04-07T11:09:55.425Z,19.40
2018-04-07T11:10:57.972Z,19.40
2018-04-07T11:12:01.258Z,19.40
2018-04-07T11:13:04.536Z,19.40
2018-04-07T11:14:07.060Z,19.50
2018-04-07T11:15:09.629Z,19.60
2018-04-07T11:16:12.166Z,19.70
2018-04-07T11:17:14.691Z,19.70
2018-04-07T11:18:17.228Z,19.70
2018-04-07T11:19:19.809Z,19.50
2018-04-07T11:20:22.327Z,19.40
2018-04-07T11:21:24.842Z,19.40
2018-04-07T11:22:28.169Z,19.50
2018-04-07T11:23:30.691Z,19.50
2018-04-07T11:24:33.226Z,19.60
2018-04-07T11:25:35.787Z,19.50
2018-04-07T11:26:38.300Z,19.50
2018-04-07T11:27:40.876Z,19.30
2018-04-07T11:28:43.409Z,19.40
2018-04-07T11:29:45.943Z,19.50
2018-04-07T11:30:48.461Z,19.60
2018-04-07T11:31:50.991Z,19.70
2018-04-07T11:32:53.559Z,19.70
2018-04-07T11:33:56.086Z,19.70
2018-04-07T11:34:59.402Z,19.90
2018-04-07T11:36:01.929Z,19.90
2018-04-07T11:37:05.216Z,20.30
2018-04-07T11:38:08.553Z,20.50
2018-04-07T11:39:11.091Z,20.50
2018-04-07T11:40:13.632Z,20.50
2018-04-07T11:41:16.932Z,20.50
2018-04-07T11:42:19.460Z,20.50
2018-04-07T11:43:22.023Z,20.60
2018-04-07T11:44:24.554Z,20.60
2018-04-07T11:45:27.085Z,20.60
2018-04-07T11:46:30.425Z,20.70
2018-04-07T11:47:32.961Z,20.70
2018-04-07T11:48:35.493Z,20.80
2018-04-07T11:49:38.825Z,21.10
2018-04-07T11:50:41.354Z,21.10
2018-04-07T11:51:44.650Z,21.20
2018-04-07T11:52:47.177Z,21.20
2018-04-07T11:53:49.812Z,21.30
2018-04-07T11:54:52.384Z,21.30
2018-04-07T11:55:54.919Z,21.40
2018-04-07T11:56:57.449Z,21.30
2018-04-07T11:58:00.018Z,21.40
2018-04-07T11:59:02.540Z,21.50
2018-04-07T12:00:05.087Z,21.50
2018-04-07T12:01:07.616Z,21.60
2018-04-07T12:02:10.145Z,21.60
2018-04-07T12:03:12.704Z,21.60
2018-04-07T12:04:15.221Z,21.70
2018-04-07T12:05:18.535Z,21.70
2018-04-07T12:06:21.107Z,21.70
2018-04-07T12:07:23.627Z,21.70
2018-04-07T12:08:26.162Z,21.60
2018-04-07T12:09:28.706Z,21.70
2018-04-07T12:10:31.239Z,21.70
2018-04-07T12:11:34.629Z,21.70
2018-04-07T12:12:37.133Z,21.70
2018-04-07T12:13:39.665Z,21.70
2018-04-07T12:14:42.969Z,21.50
2018-04-07T12:15:45.515Z,21.50
2018-04-07T12:16:48.834Z,21.60
2018-04-07T12:17:51.354Z,21.50
2018-04-07T12:18:53.937Z,21.50
2018-04-07T12:19:56.422Z,21.60
2018-04-07T12:20:58.976Z,21.80
2018-04-07T12:22:01.539Z,21.80
2018-04-07T12:23:04.832Z,21.60
2018-04-07T12:24:07.367Z,21.60
2018-04-07T12:25:09.890Z,21.60
2018-04-07T12:26:12.421Z,21.60
2018-04-07T12:27:15.751Z,21.60
2018-04-07T12:28:18.281Z,21.60
2018-04-07T12:29:20.808Z,21.70
2018-04-07T12:30:23.386Z,21.80
2018-04-07T12:31:26.681Z,21.90
2018-04-07T12:32:29.970Z,22.00
2018-04-07T12:33:33.393Z,22.40
2018-04-07T12:34:35.915Z,22.40
2018-04-07T12:35:39.206Z,22.50
2018-04-07T12:36:42.515Z,22.40
2018-04-07T12:37:45.050Z,22.40
2018-04-07T12:38:48.385Z,22.60
2018-04-07T12:39:50.944Z,22.60
2018-04-07T12:40:53.470Z,22.70
2018-04-07T12:41:56.774Z,22.80
2018-04-07T12:42:59.297Z,22.90
2018-04-07T12:44:01.858Z,22.90
2018-04-07T12:45:04.408Z,22.90
2018-04-07T12:46:06.922Z,23.10
2018-04-07T12:47:10.246Z,23.30
2018-04-07T12:48:12.773Z,23.30
2018-04-07T12:49:16.062Z,23.40
2018-04-07T12:50:19.360Z,23.40
2018-04-07T12:51:21.936Z,23.40
2018-04-07T12:52:24.587Z,23.40
2018-04-07T12:53:27.110Z,23.40
2018-04-07T12:54:29.630Z,23.40
2018-04-07T12:55:32.144Z,23.30
2018-04-07T12:56:34.674Z,23.50
2018-04-07T12:57:37.233Z,23.30
2018-04-07T12:58:39.759Z,23.10
2018-04-07T12:59:42.277Z,22.90
2018-04-07T13:00:44.803Z,22.80
2018-04-07T13:01:47.342Z,22.80
2018-04-07T13:02:49.890Z,23.00
2018-04-07T13:03:52.433Z,23.00
2018-04-07T13:04:54.966Z,23.20
2018-04-07T13:05:58.294Z,23.60
2018-04-07T13:07:00.867Z,23.60
2018-04-07T13:08:03.366Z,23.80
2018-04-07T13:09:06.677Z,23.90
2018-04-07T13:10:09.233Z,23.90
2018-04-07T13:11:12.514Z,23.50
2018-04-07T13:12:15.836Z,23.30
2018-04-07T13:13:18.386Z,23.30
2018-04-07T13:14:20.910Z,23.10
2018-04-07T13:15:23.466Z,23.20
2018-04-07T13:16:26.019Z,23.20
2018-04-07T13:17:28.528Z,23.20
2018-04-07T13:18:31.830Z,23.30
2018-04-07T13:19:34.363Z,23.30
2018-04-07T13:20:36.920Z,23.30
2018-04-07T13:21:39.451Z,23.20
2018-04-07T13:22:41.987Z,23.30
2018-04-07T13:23:45.278Z,23.40
2018-04-07T13:24:47.804Z,23.40
2018-04-07T13:25:50.372Z,23.60
2018-04-07T13:26:52.897Z,23.80
2018-04-07T13:27:55.408Z,24.00
2018-04-07T13:28:57.932Z,24.20
2018-04-07T13:30:00.460Z,24.10
2018-04-07T13:31:03.783Z,24.40
2018-04-07T13:32:06.302Z,24.40
2018-04-07T13:33:09.608Z,24.60
2018-04-07T13:34:12.130Z,24.60
2018-04-07T13:35:14.699Z,24.70
2018-04-07T13:36:17.270Z,24.60
2018-04-07T13:37:19.803Z,24.40
2018-04-07T13:38:22.335Z,24.30
2018-04-07T13:39:24.897Z,24.30
2018-04-07T13:40:28.191Z,24.40
2018-04-07T13:41:30.721Z,24.40
2018-04-07T13:42:33.277Z,24.50
2018-04-07T13:43:35.834Z,24.80
2018-04-07T13:44:38.361Z,24.60
2018-04-07T13:45:40.888Z,24.60
2018-04-07T13:46:43.417Z,24.60
2018-04-07T13:47:45.964Z,24.60